Terminal Aerodrome Forecast
Issued by NWS Charleston, WV

Home | Current Version | Previous Version | Text Only | Print | Product List | Glossary On
Versions: 1 2 3 4 5 6 7 8 9 10 11 12 13 14 15 16 17 18 19 20 21 22 23 24 25 26 27
565
FTUS41 KRLX 302320
TAFEKN
TAF
KEKN 302320Z 0100/0124 19005KT P6SM SCT250
     FM011000 18008KT P6SM SCT120 BKN200
     FM011800 20010G16KT P6SM BKN100
     FM012000 22013G25KT 3SM TSRA SCT020 OVC035CB
     FM012300 24012G21KT P6SM BKN060=

USA.gov is the U.S. government's official web portal to all federal, state and local government web resources and services.